Time;durP1;ratioP1;P1;durP2;ratioP2;P2;SDS_P1;SDS_P2;PMS_P1;PMS_P2;Temp;Humidity;BMP_temperature;BMP_pressure;BME280_temperature;BME280_humidity;BME280_pressure;Samples;Min_cycle;Max_cycle;Signal;HPM_P1;HPM_P2
2021/12/02 00:01:18;;;;;;;1.10;0.60;;;17.40;64.90;;;;;;5038116;28;20025;-24
2021/12/02 00:03:44;;;;;;;1.30;0.50;;;17.40;65.00;;;;;;5036817;28;20705;-24
2021/12/02 00:06:13;;;;;;;1.55;0.47;;;17.40;64.80;;;;;;5037799;28;20406;-26
2021/12/02 00:08:39;;;;;;;0.70;0.63;;;17.40;64.80;;;;;;5038899;28;20029;-24
2021/12/02 00:11:04;;;;;;;1.48;0.50;;;17.40;64.60;;;;;;5038465;28;20109;-21
2021/12/02 00:13:31;;;;;;;1.02;0.50;;;17.40;64.40;;;;;;5038451;28;20026;-21
2021/12/02 00:16:04;;;;;;;5.22;0.60;;;17.40;64.20;;;;;;5038047;28;20391;-27
2021/12/02 00:21:24;;;;;;;0.75;0.47;;;17.40;64.00;;;;;;5038074;28;20025;-24
2021/12/02 00:24:00;;;;;;;1.15;0.60;;;17.40;63.80;;;;;;5038450;28;20426;-25
2021/12/02 00:26:25;;;;;;;1.55;0.52;;;17.40;63.80;;;;;;5038106;28;20509;-27
2021/12/02 00:28:52;;;;;;;0.55;0.43;;;17.40;63.70;;;;;;5036924;28;20055;-29
2021/12/02 00:31:20;;;;;;;1.05;0.50;;;17.40;63.60;;;;;;5038043;28;20470;-23
2021/12/02 00:33:51;;;;;;;1.33;0.70;;;17.40;63.50;;;;;;5038037;28;20021;-25
2021/12/02 00:36:17;;;;;;;2.22;0.65;;;17.40;63.50;;;;;;5037317;28;20029;-23
2021/12/02 00:38:44;;;;;;;1.25;0.50;;;17.40;63.40;;;;;;5038349;28;20521;-21
2021/12/02 00:41:14;;;;;;;2.60;0.50;;;17.40;63.40;;;;;;5039117;28;20028;-25
2021/12/02 00:43:40;;;;;;;1.02;0.70;;;17.40;63.40;;;;;;5057988;28;20013;-23
2021/12/02 00:46:08;;;;;;;0.85;0.50;;;17.30;63.30;;;;;;5057427;28;20102;-26
2021/12/02 00:48:34;;;;;;;1.05;0.70;;;17.40;63.30;;;;;;5036583;28;20057;-22
2021/12/02 00:51:00;;;;;;;1.27;0.52;;;17.30;63.20;;;;;;5028946;28;20025;-27
2021/12/02 00:53:25;;;;;;;0.60;0.55;;;17.40;63.20;;;;;;5037648;28;20026;-28
2021/12/02 00:55:51;;;;;;;0.70;0.50;;;17.40;63.10;;;;;;5054082;28;20025;-21
2021/12/02 00:58:20;;;;;;;0.60;0.47;;;17.30;63.10;;;;;;5056207;28;20033;-29
2021/12/02 01:00:50;;;;;;;0.22;0.20;;;17.40;63.10;;;;;;5056186;28;20496;-25
2021/12/02 01:03:16;;;;;;;0.55;0.32;;;17.40;63.10;;;;;;5057492;28;20561;-28
2021/12/02 01:05:41;;;;;;;0.63;0.40;;;17.40;63.10;;;;;;5055877;28;20038;-25
2021/12/02 01:08:07;;;;;;;0.73;0.50;;;17.40;63.10;;;;;;5057151;28;20158;-22
2021/12/02 01:10:32;;;;;;;0.82;0.40;;;17.40;63.00;;;;;;5056326;28;20043;-21
2021/12/02 01:12:58;;;;;;;0.43;0.38;;;17.30;63.00;;;;;;5057331;28;20103;-25
2021/12/02 01:15:25;;;;;;;1.80;0.40;;;17.30;63.00;;;;;;5056900;28;20060;-24
2021/12/02 01:17:51;;;;;;;0.68;0.55;;;17.40;63.10;;;;;;5057048;28;20025;-27
2021/12/02 01:20:18;;;;;;;0.75;0.47;;;17.30;63.10;;;;;;5056722;28;20032;-25
2021/12/02 01:22:44;;;;;;;0.93;0.57;;;17.30;63.00;;;;;;5036326;28;20490;-23
2021/12/02 01:25:09;;;;;;;0.60;0.32;;;17.30;63.00;;;;;;5019174;28;20018;-25
2021/12/02 01:27:35;;;;;;;0.60;0.40;;;17.40;63.10;;;;;;5032220;28;20029;-27
2021/12/02 01:30:01;;;;;;;0.30;0.30;;;17.40;63.00;;;;;;5036606;28;20102;-25
2021/12/02 01:32:28;;;;;;;0.95;0.43;;;17.30;63.00;;;;;;5037126;28;20026;-22
2021/12/02 01:34:54;;;;;;;0.50;0.43;;;17.40;63.10;;;;;;5030643;28;20104;-31
2021/12/02 01:37:19;;;;;;;0.32;0.32;;;17.30;63.00;;;;;;5035479;28;20053;-25
2021/12/02 01:39:45;;;;;;;0.98;0.50;;;17.40;63.00;;;;;;5037160;28;20478;-27
2021/12/02 01:42:14;;;;;;;0.85;0.40;;;17.30;63.00;;;;;;5044792;28;20029;-25
2021/12/02 01:44:41;;;;;;;0.90;0.40;;;17.30;63.00;;;;;;5056816;28;20033;-26
2021/12/02 01:47:12;;;;;;;0.30;0.30;;;17.30;63.00;;;;;;5055450;28;20063;-25
2021/12/02 01:49:39;;;;;;;1.58;0.30;;;17.30;62.90;;;;;;5052065;28;20033;-23
2021/12/02 01:52:09;;;;;;;0.20;0.20;;;17.30;62.90;;;;;;5017000;28;20030;-23
2021/12/02 01:54:34;;;;;;;0.65;0.38;;;17.30;63.00;;;;;;5025469;28;20034;-25
2021/12/02 01:57:07;;;;;;;0.40;0.40;;;17.30;62.90;;;;;;5015719;28;20021;-24
2021/12/02 01:59:37;;;;;;;0.47;0.47;;;17.30;62.80;;;;;;5015819;28;20028;-22
2021/12/02 02:02:07;;;;;;;0.43;0.30;;;17.30;62.80;;;;;;5016796;28;20026;-28
2021/12/02 02:04:33;;;;;;;0.38;0.30;;;17.30;62.80;;;;;;5015424;28;20492;-23
2021/12/02 02:06:59;;;;;;;0.65;0.40;;;17.30;62.90;;;;;;5023971;28;20030;-26
2021/12/02 02:09:26;;;;;;;0.40;0.30;;;17.30;62.80;;;;;;5031944;28;20600;-27
2021/12/02 02:11:52;;;;;;;0.40;0.40;;;17.40;62.90;;;;;;5036532;28;20021;-27
2021/12/02 02:14:18;;;;;;;0.40;0.40;;;17.30;62.90;;;;;;5036334;28;20065;-29
2021/12/02 02:16:43;;;;;;;0.77;0.60;;;17.30;62.80;;;;;;5036224;28;20024;-22
2021/12/02 02:19:12;;;;;;;0.30;0.30;;;17.30;62.80;;;;;;5035872;28;20032;-29
2021/12/02 02:21:37;;;;;;;0.40;0.28;;;17.30;62.90;;;;;;5036456;28;20043;-27
2021/12/02 02:24:04;;;;;;;2.75;0.50;;;17.30;62.80;;;;;;5036559;28;20599;-21
2021/12/02 02:26:34;;;;;;;0.57;0.52;;;17.30;62.80;;;;;;5036471;28;20031;-22
2021/12/02 02:29:00;;;;;;;1.48;0.30;;;17.30;62.80;;;;;;5035841;28;20025;-25
2021/12/02 02:31:28;;;;;;;0.43;0.40;;;17.30;62.80;;;;;;5036340;28;20021;-22
2021/12/02 02:33:53;;;;;;;0.98;0.45;;;17.30;62.80;;;;;;5036160;28;20112;-29
2021/12/02 02:36:21;;;;;;;1.02;0.43;;;17.30;63.60;;;;;;5035800;28;20041;-26
2021/12/02 02:38:57;;;;;;;0.40;0.30;;;17.30;62.80;;;;;;5036106;28;20092;-24
2021/12/02 02:41:25;;;;;;;0.30;0.30;;;17.30;62.80;;;;;;5039032;28;20025;-23
2021/12/02 02:43:51;;;;;;;0.65;0.50;;;17.30;62.80;;;;;;5056058;28;20032;-24
2021/12/02 02:46:37;;;;;;;0.70;0.30;;;17.30;62.80;;;;;;5056098;28;20029;-22
2021/12/02 02:49:05;;;;;;;0.40;0.30;;;17.30;62.70;;;;;;5032074;28;20049;-27
2021/12/02 02:51:31;;;;;;;1.35;0.30;;;17.30;62.70;;;;;;5031415;28;20035;-21
2021/12/02 02:54:00;;;;;;;0.20;0.20;;;17.30;62.70;;;;;;5036173;28;20040;-26
2021/12/02 02:56:28;;;;;;;0.93;0.35;;;17.30;62.70;;;;;;5036443;28;20061;-29
2021/12/02 03:07:03;;;;;;;0.70;0.40;;;17.30;62.70;;;;;;5002777;28;20153;-22
2021/12/02 03:12:10;;;;;;;0.40;0.30;;;17.30;62.70;;;;;;5029635;28;20034;-25
2021/12/02 03:17:02;;;;;;;0.50;0.40;;;17.30;62.60;;;;;;5039624;28;20052;-21
2021/12/02 03:19:28;;;;;;;0.20;0.20;;;17.30;62.70;;;;;;5039167;28;20021;-21
2021/12/02 03:21:54;;;;;;;0.50;0.40;;;17.30;62.60;;;;;;5039615;28;20079;-22
2021/12/02 03:24:20;;;;;;;0.50;0.20;;;17.30;62.60;;;;;;5033610;28;20034;-26
2021/12/02 03:26:46;;;;;;;1.05;0.47;;;17.30;62.60;;;;;;5028137;28;20037;-21
2021/12/02 03:29:12;;;;;;;0.45;0.20;;;17.30;62.60;;;;;;5019374;28;20029;-23
2021/12/02 03:31:38;;;;;;;0.30;0.30;;;17.30;62.60;;;;;;5019507;28;20022;-26
2021/12/02 03:34:05;;;;;;;0.17;0.17;;;17.30;62.60;;;;;;5021931;28;20966;-25
2021/12/02 03:36:30;;;;;;;3.42;0.20;;;17.30;62.50;;;;;;5039131;28;20036;-26
2021/12/02 03:38:56;;;;;;;0.80;0.25;;;17.30;62.50;;;;;;5039300;28;20017;-24
2021/12/02 03:41:22;;;;;;;0.30;0.30;;;17.30;62.50;;;;;;5041751;28;20436;-22
2021/12/02 03:43:48;;;;;;;0.57;0.25;;;17.30;62.50;;;;;;5058894;28;20066;-26
2021/12/02 03:46:16;;;;;;;0.57;0.35;;;17.30;62.50;;;;;;5059149;28;20428;-22
2021/12/02 03:48:42;;;;;;;0.40;0.30;;;17.30;62.50;;;;;;5058450;28;20036;-21
2021/12/02 03:51:08;;;;;;;0.30;0.20;;;17.30;62.50;;;;;;5046057;28;20367;-26
2021/12/02 03:53:34;;;;;;;0.30;0.30;;;17.30;62.50;;;;;;5038756;28;20084;-28
2021/12/02 03:56:01;;;;;;;0.43;0.30;;;17.30;62.40;;;;;;5038763;28;20467;-26
2021/12/02 03:58:29;;;;;;;0.30;0.30;;;17.30;62.50;;;;;;5038765;28;20071;-25
2021/12/02 04:00:55;;;;;;;0.30;0.30;;;17.30;62.40;;;;;;5045097;28;20047;-24
2021/12/02 04:03:21;;;;;;;0.20;0.20;;;17.30;62.40;;;;;;5058885;28;20029;-24
2021/12/02 04:05:46;;;;;;;0.35;0.30;;;17.30;62.40;;;;;;5058601;28;20486;-27
2021/12/02 04:08:12;;;;;;;0.20;0.10;;;17.30;62.40;;;;;;5055318;28;20025;-27
2021/12/02 04:10:39;;;;;;;0.20;0.20;;;17.30;62.30;;;;;;5029930;28;20036;-24
2021/12/02 04:15:40;;;;;;;0.47;0.25;;;17.30;62.40;;;;;;5018601;28;20037;-23
2021/12/02 04:18:06;;;;;;;0.20;0.20;;;17.20;62.30;;;;;;5018814;28;20056;-25
2021/12/02 04:20:32;;;;;;;0.43;0.28;;;17.20;63.20;;;;;;5018406;28;20045;-24
2021/12/02 04:22:57;;;;;;;0.20;0.20;;;17.20;62.40;;;;;;5037222;28;20498;-26
2021/12/02 04:25:23;;;;;;;1.50;0.20;;;17.20;62.30;;;;;;5038220;28;20030;-30
2021/12/02 04:27:49;;;;;;;0.30;0.20;;;17.20;62.30;;;;;;5038227;28;20024;-24
2021/12/02 04:30:17;;;;;;;0.30;0.20;;;17.20;62.30;;;;;;5037606;28;20482;-23
2021/12/02 04:32:42;;;;;;;0.20;0.20;;;17.20;62.30;;;;;;5038296;28;20017;-23
2021/12/02 04:35:09;;;;;;;0.30;0.30;;;17.20;62.20;;;;;;5032486;28;20121;-30
2021/12/02 04:37:34;;;;;;;0.30;0.30;;;17.20;62.20;;;;;;5038223;28;20025;-21
2021/12/02 04:40:00;;;;;;;0.17;0.17;;;17.20;62.20;;;;;;5038165;28;20055;-24
2021/12/02 04:42:25;;;;;;;0.20;0.20;;;17.20;62.30;;;;;;5049302;28;20021;-21
2021/12/02 04:44:51;;;;;;;0.20;0.20;;;17.20;62.20;;;;;;5057577;28;20112;-25
2021/12/02 04:47:17;;;;;;;0.43;0.25;;;17.20;62.30;;;;;;5057783;28;20025;-24
2021/12/02 04:49:43;;;;;;;0.50;0.30;;;17.20;62.20;;;;;;5057211;28;20057;-30
2021/12/02 04:52:09;;;;;;;1.90;0.85;;;17.20;62.20;;;;;;5037392;28;20052;-26
2021/12/02 04:54:34;;;;;;;0.52;0.20;;;17.20;62.30;;;;;;5037710;28;20030;-24
2021/12/02 04:57:00;;;;;;;0.15;0.10;;;17.20;62.20;;;;;;5037556;28;20440;-23
2021/12/02 04:59:26;;;;;;;0.40;0.20;;;17.20;62.30;;;;;;5037727;28;20025;-24
2021/12/02 05:01:51;;;;;;;0.30;0.30;;;17.20;62.20;;;;;;5037456;28;20478;-25
2021/12/02 05:04:17;;;;;;;0.20;0.20;;;17.20;62.20;;;;;;5031061;28;20030;-26
2021/12/02 05:06:42;;;;;;;0.40;0.22;;;17.20;62.20;;;;;;5037309;28;20055;-29
2021/12/02 05:09:08;;;;;;;0.77;0.30;;;17.20;62.20;;;;;;5037697;28;20036;-21
2021/12/02 05:11:34;;;;;;;0.40;0.20;;;17.20;62.10;;;;;;5035988;28;20026;-28
2021/12/02 05:14:00;;;;;;;0.30;0.17;;;17.20;62.10;;;;;;5037316;28;20032;-27
2021/12/02 05:16:25;;;;;;;0.20;0.17;;;17.20;62.10;;;;;;5037108;28;20025;-27
2021/12/02 05:18:51;;;;;;;0.28;0.28;;;17.20;62.10;;;;;;5037307;28;20026;-28
2021/12/02 05:21:17;;;;;;;0.40;0.20;;;17.20;62.10;;;;;;5036791;28;20025;-27
2021/12/02 05:23:43;;;;;;;0.38;0.10;;;17.20;62.10;;;;;;5028561;28;20033;-21
2021/12/02 05:26:08;;;;;;;0.45;0.25;;;17.20;62.10;;;;;;5037145;28;20459;-31
2021/12/02 05:28:34;;;;;;;0.30;0.20;;;17.20;62.10;;;;;;5036649;28;20025;-26
2021/12/02 05:30:59;;;;;;;0.28;0.20;;;17.20;62.10;;;;;;5036684;28;20020;-29
2021/12/02 05:33:25;;;;;;;0.22;0.22;;;17.20;62.10;;;;;;5037119;28;20025;-27
2021/12/02 05:35:51;;;;;;;0.20;0.20;;;17.20;62.10;;;;;;5027743;28;20116;-26
2021/12/02 05:38:16;;;;;;;0.25;0.20;;;17.20;62.10;;;;;;5035030;28;20489;-22
2021/12/02 05:40:42;;;;;;;0.17;0.10;;;17.20;62.10;;;;;;5036659;28;20021;-26
2021/12/02 05:43:07;;;;;;;0.40;0.10;;;17.20;62.10;;;;;;5050028;28;20021;-21
2021/12/02 05:45:33;;;;;;;0.20;0.20;;;17.20;62.00;;;;;;5035304;28;20056;-26
2021/12/02 05:47:59;;;;;;;0.20;0.20;;;17.20;62.10;;;;;;5035893;28;20099;-28
2021/12/02 05:50:25;;;;;;;0.10;0.10;;;17.20;62.10;;;;;;5035039;28;20064;-27
2021/12/02 05:52:50;;;;;;;0.10;0.10;;;17.20;62.10;;;;;;5034715;28;20486;-25
2021/12/02 05:55:16;;;;;;;0.20;0.20;;;17.20;62.10;;;;;;5033274;28;20497;-27
2021/12/02 05:57:41;;;;;;;0.20;0.20;;;17.20;62.10;;;;;;5027074;28;20100;-22
2021/12/02 06:00:07;;;;;;;0.20;0.20;;;17.20;62.10;;;;;;5028905;28;20087;-25
2021/12/02 06:02:36;;;;;;;0.20;0.20;;;17.20;62.00;;;;;;5023309;28;20021;-29
2021/12/02 06:05:02;;;;;;;0.20;0.20;;;17.20;62.10;;;;;;5031079;28;20030;-25
2021/12/02 06:07:27;;;;;;;0.38;0.20;;;17.20;63.10;;;;;;5025507;28;20036;-23
2021/12/02 06:09:54;;;;;;;0.40;0.20;;;17.20;62.40;;;;;;5024705;28;20025;-25
2021/12/02 06:12:19;;;;;;;0.35;0.15;;;17.20;62.70;;;;;;5031070;28;20029;-26
2021/12/02 06:14:45;;;;;;;0.35;0.30;;;17.20;62.80;;;;;;5023628;28;20037;-31
2021/12/02 06:17:11;;;;;;;0.22;0.20;;;17.20;62.80;;;;;;5027496;28;20518;-22
2021/12/02 06:19:36;;;;;;;0.10;0.10;;;17.20;62.80;;;;;;5026281;28;20112;-32
2021/12/02 06:22:03;;;;;;;0.63;0.32;;;17.20;62.90;;;;;;5028713;28;20026;-23
2021/12/02 06:24:30;;;;;;;0.20;0.20;;;17.20;63.00;;;;;;5025021;28;20030;-22
2021/12/02 06:26:56;;;;;;;1.48;0.20;;;17.20;62.90;;;;;;5026169;28;20067;-22
2021/12/02 06:29:22;;;;;;;0.30;0.20;;;17.20;63.00;;;;;;5023337;28;20080;-28
2021/12/02 06:31:48;;;;;;;0.10;0.10;;;17.20;63.00;;;;;;5022613;28;20375;-24
2021/12/02 06:34:13;;;;;;;0.20;0.20;;;17.20;63.00;;;;;;5027057;28;20106;-24
2021/12/02 06:36:39;;;;;;;2.47;0.20;;;17.20;62.90;;;;;;5025587;28;20404;-21
2021/12/02 06:39:05;;;;;;;0.52;0.40;;;17.20;62.90;;;;;;5025069;28;20030;-23
2021/12/02 06:41:30;;;;;;;0.38;0.30;;;17.20;62.90;;;;;;5024743;28;20021;-23
2021/12/02 06:43:56;;;;;;;0.20;0.20;;;17.20;62.80;;;;;;5024428;28;20051;-23
2021/12/02 06:46:22;;;;;;;0.10;0.10;;;17.20;62.80;;;;;;5029153;28;20546;-27
2021/12/02 06:48:49;;;;;;;1.65;0.38;;;17.20;62.80;;;;;;5031880;28;20045;-26
2021/12/02 06:51:15;;;;;;;0.47;0.35;;;17.20;62.90;;;;;;5030162;28;20038;-25
2021/12/02 06:53:41;;;;;;;0.30;0.20;;;17.20;62.90;;;;;;5032781;28;20029;-30
2021/12/02 06:56:06;;;;;;;2.72;0.20;;;17.20;63.00;;;;;;5030356;28;20437;-23
2021/12/02 06:58:33;;;;;;;0.68;0.52;;;17.20;62.90;;;;;;5039181;28;20024;-21
2021/12/02 07:00:58;;;;;;;0.32;0.20;;;17.20;62.80;;;;;;5038518;28;20032;-23
2021/12/02 07:03:24;;;;;;;0.95;0.30;;;17.20;62.80;;;;;;5039625;28;20014;-24
2021/12/02 07:05:49;;;;;;;0.30;0.22;;;17.20;62.80;;;;;;5040074;28;20030;-30
2021/12/02 07:08:15;;;;;;;0.38;0.22;;;17.20;62.70;;;;;;5034674;28;20517;-26
2021/12/02 07:10:41;;;;;;;0.20;0.20;;;17.20;63.40;;;;;;5038385;28;20468;-26
2021/12/02 07:13:06;;;;;;;0.63;0.32;;;17.20;62.50;;;;;;5038460;28;20041;-22
2021/12/02 07:15:39;;;;;;;0.47;0.30;;;17.20;62.60;;;;;;5038979;28;20144;-22
2021/12/02 07:18:12;;;;;;;0.30;0.15;;;17.20;62.50;;;;;;5039138;28;20030;-29
2021/12/02 07:20:38;;;;;;;0.30;0.30;;;17.20;62.50;;;;;;5036192;28;20030;-22
2021/12/02 07:23:03;;;;;;;0.90;0.40;;;17.20;62.40;;;;;;5029370;28;20068;-30
2021/12/02 07:25:29;;;;;;;0.20;0.20;;;17.20;62.30;;;;;;5023781;28;20034;-25
2021/12/02 07:27:54;;;;;;;0.40;0.10;;;17.20;62.20;;;;;;5034735;28;20140;-28
2021/12/02 07:30:20;;;;;;;0.43;0.25;;;17.20;62.20;;;;;;5037674;28;20034;-24
2021/12/02 07:32:54;;;;;;;0.70;0.20;;;17.20;62.10;;;;;;5033012;28;20410;-27
2021/12/02 07:35:19;;;;;;;0.45;0.20;;;17.20;62.20;;;;;;5033687;28;20034;-28
2021/12/02 07:37:50;;;;;;;0.40;0.20;;;17.20;62.10;;;;;;5037979;28;20116;-25
2021/12/02 07:40:16;;;;;;;5.07;0.25;;;17.20;62.00;;;;;;5029767;28;20025;-25
2021/12/02 07:42:44;;;;;;;0.32;0.20;;;17.20;62.10;;;;;;5038275;28;20367;-25
2021/12/02 07:45:10;;;;;;;0.70;0.47;;;17.20;62.10;;;;;;5036018;28;20454;-29
2021/12/02 07:47:37;;;;;;;0.32;0.25;;;17.20;62.10;;;;;;5036178;28;20072;-29
2021/12/02 07:50:05;;;;;;;0.60;0.20;;;17.20;62.00;;;;;;5068859;28;20053;-21
2021/12/02 07:52:31;;;;;;;1.10;0.30;;;17.20;62.00;;;;;;5037941;28;20068;-25
2021/12/02 07:54:56;;;;;;;1.15;0.28;;;17.20;62.00;;;;;;5035789;28;20520;-27
2021/12/02 07:57:22;;;;;;;1.95;0.20;;;17.20;61.90;;;;;;5036269;28;20026;-23
2021/12/02 07:59:51;;;;;;;0.30;0.20;;;17.20;61.80;;;;;;5038719;28;20597;-24
2021/12/02 08:02:17;;;;;;;0.30;0.20;;;17.20;61.80;;;;;;5039113;28;20509;-21
2021/12/02 08:04:43;;;;;;;1.20;0.30;;;17.20;61.80;;;;;;5038831;28;20478;-21
2021/12/02 08:07:08;;;;;;;0.15;0.10;;;17.20;61.80;;;;;;5038917;28;20025;-24
2021/12/02 08:09:34;;;;;;;0.75;0.30;;;17.20;61.70;;;;;;5039081;28;20107;-23
2021/12/02 08:12:00;;;;;;;0.20;0.10;;;17.20;61.70;;;;;;5038794;28;20114;-28
2021/12/02 08:14:26;;;;;;;1.27;0.20;;;17.20;61.70;;;;;;5038676;28;20030;-22
2021/12/02 08:16:52;;;;;;;0.38;0.30;;;17.20;61.60;;;;;;5038736;28;20113;-25
2021/12/02 08:19:18;;;;;;;0.52;0.30;;;17.20;61.60;;;;;;5038565;28;20057;-24
2021/12/02 08:21:43;;;;;;;0.60;0.20;;;17.20;61.60;;;;;;5038728;28;20025;-23
2021/12/02 08:24:09;;;;;;;0.32;0.20;;;17.20;61.60;;;;;;5038550;28;20556;-21
2021/12/02 08:26:35;;;;;;;0.20;0.10;;;17.20;61.50;;;;;;5038573;28;20086;-25
2021/12/02 08:29:01;;;;;;;0.50;0.50;;;17.20;61.50;;;;;;5038430;28;20037;-23
2021/12/02 08:31:26;;;;;;;0.22;0.22;;;17.20;61.50;;;;;;5038027;28;20394;-25
2021/12/02 08:33:53;;;;;;;0.30;0.20;;;17.20;61.40;;;;;;5038289;28;20021;-27
2021/12/02 08:36:22;;;;;;;0.60;0.40;;;17.20;61.40;;;;;;5038198;28;20025;-23
2021/12/02 08:38:49;;;;;;;0.90;0.20;;;17.20;61.40;;;;;;5036740;28;20013;-26
2021/12/02 08:41:18;;;;;;;0.30;0.28;;;17.20;61.30;;;;;;5038286;28;20030;-26
2021/12/02 08:43:44;;;;;;;0.68;0.30;;;17.20;61.30;;;;;;5037971;28;20033;-27
2021/12/02 08:46:10;;;;;;;0.30;0.22;;;17.20;61.30;;;;;;5028827;28;20430;-27
2021/12/02 08:48:36;;;;;;;0.45;0.20;;;17.10;61.20;;;;;;5022922;28;20050;-21
2021/12/02 08:51:01;;;;;;;0.30;0.20;;;17.20;61.30;;;;;;5031784;28;20051;-27
2021/12/02 08:53:27;;;;;;;0.30;0.10;;;17.20;61.30;;;;;;5032874;28;20029;-25
2021/12/02 08:55:52;;;;;;;0.47;0.30;;;17.20;61.10;;;;;;5028356;28;20503;-24
2021/12/02 08:58:18;;;;;;;0.40;0.20;;;17.20;61.10;;;;;;5030286;28;20033;-22
2021/12/02 09:00:44;;;;;;;0.30;0.28;;;17.20;61.00;;;;;;5028118;28;20494;-21
2021/12/02 09:03:12;;;;;;;0.40;0.20;;;17.20;61.10;;;;;;5026732;28;20112;-24
2021/12/02 09:05:37;;;;;;;0.73;0.20;;;17.20;61.10;;;;;;5033550;28;20029;-27
2021/12/02 09:08:03;;;;;;;0.65;0.30;;;17.10;60.90;;;;;;5036413;28;20036;-27
2021/12/02 09:10:29;;;;;;;0.50;0.30;;;17.10;60.70;;;;;;5036116;28;20018;-22
2021/12/02 09:12:55;;;;;;;0.57;0.25;;;17.10;60.60;;;;;;5033317;28;20068;-24
2021/12/02 09:15:20;;;;;;;0.30;0.20;;;17.20;60.50;;;;;;5036227;28;20497;-23
2021/12/02 09:17:46;;;;;;;0.68;0.30;;;17.20;60.40;;;;;;5036397;28;20017;-23
2021/12/02 09:20:14;;;;;;;0.68;0.30;;;17.10;60.20;;;;;;5035911;28;20474;-26
2021/12/02 09:22:40;;;;;;;0.40;0.40;;;17.20;60.10;;;;;;5036165;28;20029;-30
2021/12/02 09:25:06;;;;;;;0.30;0.20;;;17.10;60.10;;;;;;5036450;28;20048;-24
2021/12/02 09:27:32;;;;;;;0.28;0.17;;;17.20;60.10;;;;;;5036528;28;20049;-26
2021/12/02 09:29:58;;;;;;;0.40;0.40;;;17.20;60.20;;;;;;5035475;28;20029;-25
2021/12/02 09:32:24;;;;;;;0.73;0.63;;;17.20;60.10;;;;;;5036490;28;20029;-22
2021/12/02 09:34:50;;;;;;;1.00;0.20;;;17.20;60.10;;;;;;5035744;28;20470;-27
2021/12/02 09:37:16;;;;;;;0.25;0.20;;;17.20;60.10;;;;;;5036357;28;20417;-26
2021/12/02 09:39:41;;;;;;;0.60;0.30;;;17.20;60.00;;;;;;5037547;28;20105;-24
2021/12/02 09:42:10;;;;;;;1.08;0.35;;;17.20;60.00;;;;;;5036028;28;20090;-26
2021/12/02 09:44:40;;;;;;;0.25;0.20;;;17.20;60.10;;;;;;5035742;28;20033;-28
2021/12/02 09:47:06;;;;;;;0.65;0.40;;;17.10;60.00;;;;;;5035765;28;20028;-23
2021/12/02 09:49:31;;;;;;;0.70;0.30;;;17.20;60.10;;;;;;5036272;28;20479;-25
2021/12/02 09:52:02;;;;;;;0.50;0.50;;;17.10;60.10;;;;;;5034849;28;20061;-22
2021/12/02 09:57:07;;;;;;;1.42;0.30;;;17.10;60.90;;;;;;5032785;28;20533;-31
2021/12/02 10:02:05;;;;;;;0.45;0.35;;;17.10;60.00;;;;;;5034197;28;20550;-20
2021/12/02 10:04:39;;;;;;;0.50;0.40;;;17.10;60.20;;;;;;5032853;28;20083;-26
2021/12/02 10:07:09;;;;;;;0.97;0.30;;;17.10;59.80;;;;;;5033788;28;20534;-21
2021/12/02 10:09:49;;;;;;;0.50;0.40;;;17.10;59.90;;;;;;5031223;28;20025;-21
2021/12/02 10:12:21;;;;;;;0.30;0.30;;;17.20;59.70;;;;;;5033517;28;20030;-27
2021/12/02 10:14:53;;;;;;;1.48;0.20;;;17.20;59.40;;;;;;5031868;28;20033;-24
2021/12/02 10:17:31;;;;;;;1.42;0.60;;;17.20;59.70;;;;;;5031418;28;20022;-24
2021/12/02 10:20:10;;;;;;;0.98;0.40;;;17.10;59.60;;;;;;5028920;28;20682;-23
2021/12/02 10:22:36;;;;;;;1.45;0.45;;;17.10;59.50;;;;;;5034390;28;20041;-23
2021/12/02 10:25:02;;;;;;;1.23;0.75;;;17.20;59.40;;;;;;5035233;28;20509;-25
2021/12/02 10:27:27;;;;;;;1.08;0.68;;;17.10;59.40;;;;;;5061620;28;20030;-26
2021/12/02 10:29:53;;;;;;;1.25;0.50;;;17.20;59.40;;;;;;5031505;28;20121;-25
2021/12/02 10:32:28;;;;;;;0.88;0.50;;;17.20;59.40;;;;;;5032993;28;20095;-29
2021/12/02 10:35:06;;;;;;;2.67;0.50;;;17.10;59.50;;;;;;5034821;28;20061;-30
2021/12/02 10:37:34;;;;;;;0.77;0.55;;;17.10;59.60;;;;;;5028531;28;20069;-25
2021/12/02 10:40:13;;;;;;;1.58;0.90;;;17.10;60.00;;;;;;5037624;28;20079;-22
2021/12/02 10:42:43;;;;;;;1.05;0.90;;;17.10;60.30;;;;;;5030718;28;20049;-23
2021/12/02 10:45:25;;;;;;;1.35;1.23;;;17.10;60.50;;;;;;5031343;28;20101;-27
2021/12/02 10:47:51;;;;;;;1.40;1.30;;;17.10;60.80;;;;;;5031224;28;20111;-24
2021/12/02 10:50:17;;;;;;;1.98;1.58;;;17.10;61.00;;;;;;5033081;28;20516;-23
2021/12/02 10:52:42;;;;;;;1.90;1.70;;;17.10;61.10;;;;;;5032778;28;20026;-28
2021/12/02 10:55:10;;;;;;;1.38;1.20;;;17.10;61.10;;;;;;5033490;28;20389;-32
2021/12/02 10:57:37;;;;;;;1.67;1.30;;;17.10;61.20;;;;;;5032814;28;20037;-28
2021/12/02 11:00:08;;;;;;;2.40;1.58;;;17.10;61.30;;;;;;5024778;28;20029;-24
2021/12/02 11:02:35;;;;;;;1.58;1.10;;;17.10;61.30;;;;;;5034576;28;20152;-20
2021/12/02 11:05:24;;;;;;;1.30;1.20;;;17.10;61.40;;;;;;5034288;28;20099;-24
2021/12/02 11:08:05;;;;;;;2.42;1.20;;;17.10;62.00;;;;;;5033235;28;20013;-25
2021/12/02 11:10:38;;;;;;;1.15;1.05;;;17.10;61.50;;;;;;5033924;28;20040;-23
2021/12/02 11:13:03;;;;;;;2.65;1.10;;;17.10;61.50;;;;;;5035852;28;20128;-24
2021/12/02 11:15:30;;;;;;;1.00;0.80;;;17.10;61.50;;;;;;5033246;28;20061;-30
2021/12/02 11:18:01;;;;;;;4.40;1.08;;;17.10;61.50;;;;;;5027186;28;20029;-29
2021/12/02 11:20:33;;;;;;;2.65;1.20;;;17.10;61.50;;;;;;5034479;28;20100;-23
2021/12/02 11:23:08;;;;;;;0.90;0.90;;;17.10;61.50;;;;;;5028738;28;20081;-29
2021/12/02 11:25:35;;;;;;;1.35;0.85;;;17.10;61.40;;;;;;5030596;28;20041;-25
2021/12/02 11:28:05;;;;;;;1.60;1.10;;;17.10;61.40;;;;;;5034836;28;20029;-22
2021/12/02 11:30:31;;;;;;;1.25;0.90;;;17.10;61.50;;;;;;5034141;28;20037;-24
2021/12/02 11:33:04;;;;;;;0.80;0.75;;;17.10;61.40;;;;;;5038067;28;20088;-26
2021/12/02 11:35:40;;;;;;;1.35;0.65;;;17.10;61.50;;;;;;5038377;28;20430;-30
2021/12/02 11:38:21;;;;;;;0.75;0.75;;;17.10;61.50;;;;;;5039356;28;20032;-24
2021/12/02 11:40:48;;;;;;;1.70;0.90;;;17.10;61.40;;;;;;5038121;28;20037;-26
2021/12/02 11:43:19;;;;;;;0.95;0.73;;;17.10;61.40;;;;;;5038109;28;20359;-21
2021/12/02 11:45:47;;;;;;;1.23;0.70;;;17.10;61.40;;;;;;5038319;28;20036;-28
2021/12/02 11:48:29;;;;;;;0.98;0.73;;;17.10;61.30;;;;;;5037877;28;20064;-21
2021/12/02 11:50:57;;;;;;;0.90;0.75;;;17.10;61.30;;;;;;5037905;28;20025;-26
2021/12/02 11:53:23;;;;;;;0.95;0.93;;;17.10;61.30;;;;;;5035915;28;20036;-27
2021/12/02 11:56:00;;;;;;;1.23;0.68;;;17.10;61.40;;;;;;5033310;28;20025;-34
2021/12/02 11:58:26;;;;;;;1.20;0.60;;;17.10;61.20;;;;;;5047508;28;20072;-27
2021/12/02 12:00:51;;;;;;;1.75;0.80;;;17.10;61.30;;;;;;5035537;28;20441;-35
2021/12/02 12:03:43;;;;;;;0.85;0.85;;;17.10;61.20;;;;;;5031479;28;20122;-30
2021/12/02 12:06:22;;;;;;;1.50;0.50;;;17.10;61.30;;;;;;5036685;28;20052;-28
2021/12/02 12:08:50;;;;;;;0.60;0.50;;;17.10;61.20;;;;;;5030729;28;20029;-26
2021/12/02 12:11:24;;;;;;;1.83;0.63;;;17.00;61.10;;;;;;5035398;28;20030;-22
2021/12/02 12:14:10;;;;;;;0.50;0.40;;;17.10;61.10;;;;;;5034911;28;20029;-25
2021/12/02 12:16:43;;;;;;;0.38;0.35;;;17.00;61.20;;;;;;5027717;28;20056;-25
2021/12/02 12:19:40;;;;;;;0.95;0.52;;;17.00;61.20;;;;;;5037068;28;20043;-24
2021/12/02 12:22:13;;;;;;;0.82;0.68;;;17.00;61.30;;;;;;5042297;28;20095;-24
2021/12/02 12:24:49;;;;;;;0.80;0.50;;;17.00;61.10;;;;;;5035997;28;20050;-25
2021/12/02 12:27:19;;;;;;;0.50;0.50;;;17.00;61.20;;;;;;5042534;28;20540;-30
2021/12/02 12:29:48;;;;;;;0.63;0.50;;;17.00;61.20;;;;;;5029428;28;20042;-26
2021/12/02 12:32:22;;;;;;;0.70;0.57;;;17.00;61.30;;;;;;5043798;28;20076;-24
2021/12/02 12:37:22;;;;;;;5.78;0.60;;;16.90;61.30;;;;;;5034520;28;20056;-27
2021/12/02 12:40:09;;;;;;;0.88;0.50;;;16.90;61.30;;;;;;5033641;28;20129;-22
2021/12/02 12:42:36;;;;;;;0.52;0.52;;;16.90;61.30;;;;;;5030900;28;20556;-28
2021/12/02 12:45:03;;;;;;;0.30;0.30;;;16.90;61.30;;;;;;5026592;28;20529;-28
2021/12/02 12:48:01;;;;;;;0.90;0.90;;;16.90;61.30;;;;;;5034074;28;20045;-22
2021/12/02 12:50:33;;;;;;;0.90;0.40;;;16.90;61.20;;;;;;5024866;28;20046;-27
2021/12/02 12:53:04;;;;;;;0.93;0.38;;;16.90;61.40;;;;;;5032596;28;20021;-28
2021/12/02 12:55:36;;;;;;;0.50;0.50;;;16.80;61.30;;;;;;5035318;28;20033;-26
2021/12/02 12:58:14;;;;;;;1.30;0.68;;;16.90;61.50;;;;;;5034470;28;20103;-25
2021/12/02 13:00:44;;;;;;;0.50;0.43;;;17.00;61.40;;;;;;5034050;28;20025;-24
2021/12/02 13:03:16;;;;;;;0.85;0.40;;;17.00;61.50;;;;;;5034105;28;20080;-30
2021/12/02 13:05:49;;;;;;;0.40;0.30;;;17.00;61.60;;;;;;5023742;28;20021;-25
2021/12/02 13:08:19;;;;;;;2.25;0.50;;;17.00;61.70;;;;;;5027672;28;20374;-28
2021/12/02 13:10:59;;;;;;;0.95;0.50;;;17.00;61.80;;;;;;5034674;28;20049;-24
2021/12/02 13:13:30;;;;;;;0.63;0.38;;;17.10;61.80;;;;;;5030839;28;20033;-30
2021/12/02 13:16:17;;;;;;;0.25;0.25;;;17.00;61.50;;;;;;5027678;28;20025;-22
2021/12/02 13:18:47;;;;;;;0.70;0.50;;;17.00;62.00;;;;;;5031554;28;20037;-24